createdAt,value
2022-12-18T00:02:18.808Z,95.65
2022-12-18T00:04:41.352Z,90.63
2022-12-18T00:07:03.985Z,95.45
2022-12-18T00:09:26.303Z,99.95
2022-12-18T00:14:38.176Z,100.65
2022-12-18T00:17:04.076Z,97.63
2022-12-18T00:19:26.433Z,98.47
2022-12-18T00:21:48.738Z,105.20
2022-12-18T00:24:12.034Z,101.07
2022-12-18T00:26:34.842Z,101.72
2022-12-18T00:29:14.656Z,102.90
2022-12-18T00:31:38.036Z,98.60
2022-12-18T00:34:00.429Z,87.57
2022-12-18T00:36:28.852Z,101.13
2022-12-18T00:38:51.283Z,88.10
2022-12-18T00:41:35.435Z,94.78
2022-12-18T00:43:58.779Z,86.03
2022-12-18T00:46:22.363Z,85.97
2022-12-18T00:48:44.665Z,82.38
2022-12-18T00:51:09.870Z,82.75
2022-12-18T00:53:32.233Z,81.50
2022-12-18T00:55:54.704Z,80.15
2022-12-18T00:58:17.698Z,83.28
2022-12-18T01:03:02.544Z,88.10
2022-12-18T01:05:24.974Z,88.57
2022-12-18T01:07:47.458Z,81.35
2022-12-18T01:10:11.508Z,83.43
2022-12-18T01:12:34.385Z,92.35
2022-12-18T01:14:56.825Z,82.53
2022-12-18T01:17:19.164Z,87.72
2022-12-18T01:19:41.730Z,86.32
2022-12-18T01:22:04.408Z,81.57
2022-12-18T01:24:26.803Z,88.60
2022-12-18T01:26:49.153Z,84.20
2022-12-18T01:29:11.489Z,101.38
2022-12-18T01:31:34.906Z,89.70
2022-12-18T01:33:57.879Z,93.60
2022-12-18T01:36:28.855Z,87.75
2022-12-18T01:38:51.422Z,87.15
2022-12-18T01:41:14.043Z,89.53
2022-12-18T01:44:02.848Z,87.15
2022-12-18T01:46:25.618Z,72.88
2022-12-18T01:48:55.155Z,79.60
2022-12-18T01:51:17.480Z,69.20
2022-12-18T01:53:41.746Z,76.45
2022-12-18T01:56:04.441Z,78.93
2022-12-18T01:59:01.037Z,74.93
2022-12-18T02:01:24.821Z,70.72
2022-12-18T02:03:47.317Z,89.18
2022-12-18T02:06:34.603Z,71.13
2022-12-18T02:09:07.349Z,77.30
2022-12-18T02:11:41.317Z,61.60
2022-12-18T02:14:24.855Z,68.40
2022-12-18T02:19:57.495Z,59.75
2022-12-18T02:23:00.152Z,65.90
2022-12-18T02:26:07.173Z,57.22
2022-12-18T02:28:33.174Z,57.80
2022-12-18T02:30:55.616Z,60.05
2022-12-18T02:33:18.014Z,52.97
2022-12-18T02:35:40.408Z,55.13
2022-12-18T02:38:03.489Z,55.90
2022-12-18T02:42:49.088Z,48.55
2022-12-18T02:45:11.637Z,52.30
2022-12-18T02:47:37.237Z,50.85
2022-12-18T02:50:05.580Z,48.28
2022-12-18T02:52:41.531Z,47.00
2022-12-18T02:55:28.772Z,48.20
2022-12-18T02:58:18.241Z,45.33
2022-12-18T03:01:09.566Z,46.92
2022-12-18T03:03:56.805Z,50.42
2022-12-18T03:06:31.283Z,48.15
2022-12-18T03:08:59.471Z,53.00
2022-12-18T03:11:41.750Z,47.92
2022-12-18T03:14:04.180Z,48.53
2022-12-18T03:16:29.382Z,47.45
2022-12-18T03:19:10.591Z,48.40
2022-12-18T03:21:48.329Z,51.95
2022-12-18T03:24:11.121Z,43.42
2022-12-18T03:26:33.475Z,47.78
2022-12-18T03:29:00.791Z,49.70
2022-12-18T03:31:24.721Z,57.20
2022-12-18T03:34:02.186Z,44.17
2022-12-18T03:36:24.784Z,44.45
2022-12-18T03:41:34.893Z,48.17
2022-12-18T03:44:16.184Z,48.65
2022-12-18T03:46:49.372Z,50.00
2022-12-18T03:49:16.930Z,45.00
2022-12-18T03:51:55.681Z,42.97
2022-12-18T03:54:18.057Z,45.72
2022-12-18T03:56:58.694Z,51.38
2022-12-18T03:59:21.017Z,50.58
2022-12-18T04:01:47.583Z,51.58
2022-12-18T04:04:11.563Z,44.28
2022-12-18T04:06:36.837Z,49.65
2022-12-18T04:08:59.388Z,48.83
2022-12-18T04:11:21.743Z,45.53
2022-12-18T04:13:44.356Z,46.40
2022-12-18T04:16:07.199Z,47.33
2022-12-18T04:18:29.640Z,43.60
2022-12-18T04:20:52.102Z,51.15
2022-12-18T04:23:14.508Z,42.78
2022-12-18T04:25:36.851Z,45.83
2022-12-18T04:27:59.292Z,57.05
2022-12-18T04:30:21.617Z,49.88
2022-12-18T04:32:47.727Z,48.35
2022-12-18T04:35:13.021Z,48.53
2022-12-18T04:37:35.460Z,44.75
2022-12-18T04:39:57.792Z,50.92
2022-12-18T04:42:20.099Z,47.45
2022-12-18T04:44:42.520Z,50.63
2022-12-18T04:47:05.063Z,51.17
2022-12-18T04:49:27.482Z,53.72
2022-12-18T04:51:49.903Z,51.50
2022-12-18T04:54:12.472Z,54.75
2022-12-18T04:56:34.799Z,48.45
2022-12-18T04:58:58.278Z,52.70
2022-12-18T05:01:20.856Z,53.35
2022-12-18T05:03:44.115Z,47.75
2022-12-18T05:06:07.455Z,56.28
2022-12-18T05:11:10.063Z,62.05
2022-12-18T05:13:34.319Z,63.15
2022-12-18T05:15:56.875Z,56.63
2022-12-18T05:18:19.286Z,65.97
2022-12-18T05:20:41.632Z,66.43
2022-12-18T05:23:05.075Z,69.93
2022-12-18T05:25:27.622Z,64.85
2022-12-18T05:27:49.985Z,69.30
2022-12-18T05:30:13.259Z,70.68
2022-12-18T05:32:35.646Z,65.28
2022-12-18T05:34:58.420Z,68.38
2022-12-18T05:37:21.878Z,65.07
2022-12-18T05:39:45.229Z,73.15
2022-12-18T05:42:07.645Z,60.05
2022-12-18T05:44:30.004Z,66.68
2022-12-18T05:46:52.332Z,68.80
2022-12-18T05:49:14.991Z,67.10
2022-12-18T05:51:37.291Z,59.08
2022-12-18T05:53:59.632Z,57.35
2022-12-18T05:56:23.061Z,57.40
2022-12-18T05:58:45.487Z,59.55
2022-12-18T06:01:17.717Z,55.22
2022-12-18T06:03:40.664Z,58.27
2022-12-18T06:06:03.390Z,59.70
2022-12-18T06:08:25.796Z,65.03
2022-12-18T06:10:52.785Z,64.30
2022-12-18T06:13:15.201Z,65.28
2022-12-18T06:15:38.372Z,69.75
2022-12-18T06:18:02.406Z,73.43
2022-12-18T06:20:26.899Z,67.85
2022-12-18T06:22:53.399Z,75.88
2022-12-18T06:27:38.344Z,81.10
2022-12-18T06:30:01.696Z,76.57
2022-12-18T06:32:24.180Z,78.43
2022-12-18T06:34:46.519Z,86.65
2022-12-18T06:37:08.863Z,79.18
2022-12-18T06:39:32.548Z,85.93
2022-12-18T06:41:54.909Z,76.32
2022-12-18T06:44:17.375Z,77.85
2022-12-18T06:46:39.748Z,69.85
2022-12-18T06:49:02.307Z,67.03
2022-12-18T06:51:25.179Z,61.65
2022-12-18T06:53:47.667Z,74.00
2022-12-18T06:56:11.089Z,62.35
2022-12-18T06:58:34.033Z,68.43
2022-12-18T07:01:04.524Z,72.60
2022-12-18T07:03:26.944Z,75.95
2022-12-18T07:05:49.284Z,70.13
2022-12-18T07:08:11.636Z,70.47
2022-12-18T07:10:34.019Z,74.10
2022-12-18T07:12:56.441Z,77.05
2022-12-18T07:15:18.813Z,76.13
2022-12-18T07:17:41.161Z,67.47
2022-12-18T07:20:04.183Z,70.40
2022-12-18T07:24:50.061Z,55.72
2022-12-18T07:27:12.410Z,56.03
2022-12-18T07:29:34.780Z,65.82
2022-12-18T07:31:57.181Z,61.08
2022-12-18T07:34:19.615Z,55.33
2022-12-18T07:36:42.123Z,60.25
2022-12-18T07:39:04.519Z,63.00
2022-12-18T07:41:26.859Z,67.85
2022-12-18T07:43:49.293Z,60.97
2022-12-18T07:46:13.178Z,54.55
2022-12-18T07:48:35.920Z,54.08
2022-12-18T07:51:06.425Z,54.40
2022-12-18T07:53:28.761Z,54.63
2022-12-18T07:56:25.537Z,56.45
2022-12-18T07:58:38.948Z,55.63
2022-12-18T08:01:11.919Z,50.40
2022-12-18T08:03:34.400Z,65.38
2022-12-18T08:06:04.483Z,63.42
2022-12-18T08:08:26.880Z,54.35
2022-12-18T08:10:49.235Z,52.92
2022-12-18T08:13:11.722Z,59.65
2022-12-18T08:15:34.102Z,65.20
2022-12-18T08:17:59.495Z,74.03
2022-12-18T08:20:21.896Z,70.68
2022-12-18T08:22:25.014Z,69.97
2022-12-18T08:24:27.095Z,65.68
2022-12-18T08:26:31.221Z,74.05
2022-12-18T08:28:33.563Z,74.78
2022-12-18T08:30:37.274Z,72.57
2022-12-18T08:32:39.314Z,57.22
2022-12-18T08:34:42.299Z,60.45
2022-12-18T08:36:44.300Z,65.03
2022-12-18T08:40:49.520Z,64.25
2022-12-18T08:45:14.837Z,72.28
2022-12-18T08:47:17.100Z,66.53
2022-12-18T08:49:19.423Z,63.45
2022-12-18T08:51:21.731Z,66.35
2022-12-18T08:53:25.200Z,62.45
2022-12-18T08:55:27.376Z,62.22
2022-12-18T08:57:29.505Z,77.65
2022-12-18T09:01:34.601Z,64.28
2022-12-18T09:03:38.465Z,64.10
2022-12-18T09:05:41.168Z,64.32
2022-12-18T09:07:43.199Z,66.75
2022-12-18T09:09:45.675Z,72.40
2022-12-18T09:11:48.198Z,74.47
2022-12-18T09:13:50.672Z,68.40
2022-12-18T09:15:54.029Z,62.63
2022-12-18T09:17:56.350Z,64.78
2022-12-18T09:20:01.619Z,70.07
2022-12-18T09:22:03.598Z,57.55
2022-12-18T09:24:08.769Z,62.30
2022-12-18T09:26:11.662Z,64.25
2022-12-18T09:28:18.618Z,56.35
2022-12-18T09:30:23.634Z,59.70
2022-12-18T09:32:27.804Z,62.22
2022-12-18T09:34:30.434Z,70.38
2022-12-18T09:36:33.244Z,58.17
2022-12-18T09:38:35.988Z,62.33
2022-12-18T09:40:46.376Z,48.95
2022-12-18T09:42:58.814Z,59.75
2022-12-18T09:45:02.414Z,62.85
2022-12-18T09:47:21.349Z,51.88
2022-12-18T09:49:24.898Z,54.83
2022-12-18T09:51:36.261Z,56.55
2022-12-18T09:53:38.952Z,48.95
2022-12-18T09:55:43.860Z,59.00
2022-12-18T09:57:50.514Z,68.88
2022-12-18T10:00:08.341Z,58.78
2022-12-18T10:02:25.271Z,64.60
2022-12-18T10:04:27.635Z,52.10
2022-12-18T10:07:42.241Z,50.65
2022-12-18T10:10:02.384Z,54.22
2022-12-18T10:12:26.929Z,55.05
2022-12-18T10:14:41.276Z,50.17
2022-12-18T10:16:55.651Z,53.75
2022-12-18T10:19:19.462Z,50.15
2022-12-18T10:21:51.990Z,60.25
2022-12-18T10:24:24.759Z,53.63
2022-12-18T10:26:28.050Z,54.97
2022-12-18T10:28:32.333Z,60.72
2022-12-18T10:30:34.741Z,60.80
2022-12-18T10:32:38.330Z,60.60
2022-12-18T10:34:48.826Z,52.70
2022-12-18T10:36:53.684Z,57.38
2022-12-18T10:39:15.544Z,56.92
2022-12-18T10:41:23.165Z,57.38
2022-12-18T10:43:36.500Z,50.10
2022-12-18T10:45:38.673Z,54.63
2022-12-18T10:47:48.150Z,56.72
2022-12-18T10:49:53.629Z,56.83
2022-12-18T10:52:27.577Z,60.90
2022-12-18T10:54:35.231Z,60.08
2022-12-18T10:56:37.781Z,52.80
2022-12-18T11:00:46.582Z,59.13
2022-12-18T11:02:50.675Z,58.35
2022-12-18T11:04:53.477Z,59.88
2022-12-18T11:07:04.032Z,53.95
2022-12-18T11:09:27.335Z,64.05
2022-12-18T11:11:29.557Z,67.10
2022-12-18T11:13:32.580Z,65.65
2022-12-18T11:15:35.027Z,71.72
2022-12-18T11:17:37.443Z,63.08
2022-12-18T11:21:43.488Z,71.03
2022-12-18T11:23:53.973Z,66.68
2022-12-18T11:26:01.428Z,76.57
2022-12-18T11:28:30.249Z,81.55
2022-12-18T11:30:37.563Z,81.72
2022-12-18T11:32:41.339Z,83.20
2022-12-18T11:34:47.046Z,86.38
2022-12-18T11:36:49.596Z,85.00
2022-12-18T11:38:53.514Z,81.97
2022-12-18T11:41:50.740Z,89.28
2022-12-18T11:44:11.510Z,77.57
2022-12-18T11:46:54.198Z,81.72
2022-12-18T11:49:35.362Z,79.47
2022-12-18T11:52:26.618Z,85.63
2022-12-18T11:54:52.455Z,83.18
2022-12-18T11:58:02.313Z,86.97
2022-12-18T12:00:24.778Z,81.53
2022-12-18T12:03:19.822Z,87.90
2022-12-18T12:06:54.811Z,83.70
2022-12-18T12:09:20.725Z,83.15
2022-12-18T12:11:44.149Z,84.00
2022-12-18T12:14:01.784Z,83.28
2022-12-18T12:16:34.256Z,97.22
2022-12-18T12:18:55.264Z,87.40
2022-12-18T12:21:28.274Z,101.97
2022-12-18T12:24:05.576Z,93.10
2022-12-18T12:26:44.065Z,88.00
2022-12-18T12:28:50.964Z,86.18
2022-12-18T12:31:51.676Z,91.45
2022-12-18T12:34:03.532Z,82.75
2022-12-18T12:36:45.649Z,96.47
2022-12-18T12:38:56.222Z,82.32
2022-12-18T12:41:32.883Z,87.68
2022-12-18T12:43:50.633Z,91.43
2022-12-18T12:46:13.631Z,96.05
2022-12-18T12:48:38.311Z,87.47
2022-12-18T12:50:41.311Z,87.97
2022-12-18T12:54:48.799Z,83.32
2022-12-18T12:56:59.479Z,86.72
2022-12-18T12:59:30.904Z,97.50
2022-12-18T13:01:55.578Z,90.20
2022-12-18T13:04:24.155Z,95.50
2022-12-18T13:06:44.570Z,85.18
2022-12-18T13:08:59.486Z,86.13
2022-12-18T13:11:20.990Z,92.20
2022-12-18T13:13:24.820Z,91.57
2022-12-18T13:15:40.880Z,93.95
2022-12-18T13:17:44.234Z,101.85
2022-12-18T13:19:50.643Z,107.28
2022-12-18T13:21:59.414Z,99.38
2022-12-18T13:24:27.283Z,103.55
2022-12-18T13:26:32.334Z,94.13
2022-12-18T13:28:34.927Z,93.20
2022-12-18T13:30:37.332Z,91.50
2022-12-18T13:34:41.631Z,88.72
2022-12-18T13:36:43.963Z,100.07
2022-12-18T13:42:36.243Z,95.13
2022-12-18T13:44:41.879Z,91.10
2022-12-18T13:46:47.311Z,90.85
2022-12-18T13:49:14.887Z,103.13
2022-12-18T13:51:19.129Z,93.85
2022-12-18T13:53:27.058Z,94.72
2022-12-18T13:55:30.805Z,100.63
2022-12-18T13:57:41.812Z,104.82
2022-12-18T13:59:45.559Z,101.38
2022-12-18T14:02:02.894Z,104.45
2022-12-18T14:04:30.046Z,106.15
2022-12-18T14:06:32.235Z,112.72
2022-12-18T14:10:48.997Z,109.78
2022-12-18T14:13:00.898Z,97.72
2022-12-18T14:15:07.867Z,97.82
2022-12-18T14:17:15.118Z,90.40
2022-12-18T14:19:18.703Z,98.53
2022-12-18T14:21:35.192Z,97.22
2022-12-18T14:23:39.316Z,101.53
2022-12-18T14:25:47.244Z,113.30
2022-12-18T14:28:16.499Z,88.65
2022-12-18T14:30:28.826Z,111.65
2022-12-18T14:32:31.146Z,109.70
2022-12-18T14:34:33.646Z,112.03
2022-12-18T14:36:36.159Z,114.05
2022-12-18T14:38:40.113Z,113.28
2022-12-18T14:40:43.122Z,108.80
2022-12-18T14:42:46.872Z,118.38
2022-12-18T14:45:12.528Z,113.15
2022-12-18T14:47:25.399Z,106.35
2022-12-18T14:49:35.145Z,112.35
2022-12-18T14:51:37.371Z,133.02
2022-12-18T14:54:01.468Z,118.85
2022-12-18T14:56:13.590Z,125.43
2022-12-18T14:58:17.261Z,118.90
2022-12-18T15:00:22.017Z,127.32
2022-12-18T15:02:29.162Z,113.70
2022-12-18T15:04:42.067Z,121.25
2022-12-18T15:06:46.679Z,129.15
2022-12-18T15:08:48.875Z,133.00
2022-12-18T15:10:52.305Z,126.68
2022-12-18T15:12:57.344Z,131.98
2022-12-18T15:14:59.627Z,133.18
2022-12-18T15:17:03.422Z,132.23
2022-12-18T15:19:08.779Z,136.80
2022-12-18T15:21:12.276Z,127.82
2022-12-18T15:23:26.381Z,131.02
2022-12-18T15:25:35.564Z,131.35
2022-12-18T15:27:38.944Z,123.50
2022-12-18T15:29:41.303Z,125.07
2022-12-18T15:31:43.634Z,117.00
2022-12-18T15:34:14.214Z,132.80
2022-12-18T15:36:21.424Z,131.40
2022-12-18T15:38:29.170Z,125.38
2022-12-18T15:42:52.576Z,138.48
2022-12-18T15:44:54.927Z,120.05
2022-12-18T15:46:57.249Z,135.73
2022-12-18T15:49:02.723Z,140.30
2022-12-18T15:51:06.467Z,128.98
2022-12-18T15:53:09.564Z,122.43
2022-12-18T15:55:35.302Z,133.85
2022-12-18T15:57:38.910Z,126.03
2022-12-18T15:59:41.509Z,127.22
2022-12-18T16:01:47.003Z,118.47
2022-12-18T16:03:49.719Z,120.60
2022-12-18T16:05:51.941Z,118.00
2022-12-18T16:07:54.526Z,110.70
2022-12-18T16:09:59.416Z,120.25
2022-12-18T16:12:06.557Z,107.80
2022-12-18T16:14:29.868Z,112.35
2022-12-18T16:18:49.312Z,125.15
2022-12-18T16:20:52.101Z,113.45
2022-12-18T16:22:54.491Z,108.03
2022-12-18T16:25:01.982Z,127.80
2022-12-18T16:27:04.316Z,124.45
2022-12-18T16:29:06.357Z,126.43
2022-12-18T16:31:12.261Z,119.28
2022-12-18T16:33:14.642Z,140.25
2022-12-18T16:35:17.321Z,124.15
2022-12-18T16:37:20.075Z,144.13
2022-12-18T16:39:22.482Z,140.55
2022-12-18T16:41:34.945Z,141.77
2022-12-18T16:43:37.207Z,130.88
2022-12-18T16:45:42.100Z,128.18
2022-12-18T16:47:44.271Z,137.43
2022-12-18T16:49:47.018Z,132.98
2022-12-18T16:51:49.166Z,127.90
2022-12-18T16:53:53.436Z,131.65
2022-12-18T16:56:05.808Z,125.70
2022-12-18T16:58:09.621Z,116.78
2022-12-18T17:00:13.563Z,130.82
2022-12-18T17:02:39.875Z,125.22
2022-12-18T17:04:43.043Z,126.38
2022-12-18T17:06:46.112Z,116.20
2022-12-18T17:08:48.564Z,111.28
2022-12-18T17:10:50.980Z,107.18
2022-12-18T17:12:53.543Z,109.95
2022-12-18T17:14:56.492Z,118.38
2022-12-18T17:19:26.028Z,115.00
2022-12-18T17:21:29.495Z,113.82
2022-12-18T17:23:34.415Z,109.63
2022-12-18T17:25:41.407Z,119.57
2022-12-18T17:27:43.622Z,109.80
2022-12-18T17:29:48.238Z,128.88
2022-12-18T17:31:51.203Z,115.28
2022-12-18T17:33:53.948Z,131.80
2022-12-18T17:35:59.257Z,133.52
2022-12-18T17:38:01.841Z,139.00
2022-12-18T17:40:06.766Z,137.32
2022-12-18T17:42:15.551Z,141.23
2022-12-18T17:44:37.676Z,154.65
2022-12-18T17:47:00.192Z,161.35
2022-12-18T17:49:24.504Z,149.50
2022-12-18T17:51:47.533Z,168.43
2022-12-18T17:56:38.600Z,179.80
2022-12-18T17:59:01.239Z,176.73
2022-12-18T18:01:12.540Z,173.32
2022-12-18T18:03:20.670Z,157.18
2022-12-18T18:05:23.094Z,152.32
2022-12-18T18:07:25.703Z,159.10
2022-12-18T18:09:30.862Z,160.02
2022-12-18T18:11:52.104Z,157.57
2022-12-18T18:14:02.893Z,145.80
2022-12-18T18:16:06.326Z,142.18
2022-12-18T18:18:08.709Z,139.52
2022-12-18T18:20:20.709Z,123.65
2022-12-18T18:22:24.801Z,129.48
2022-12-18T18:24:27.512Z,126.03
2022-12-18T18:26:32.179Z,114.40
2022-12-18T18:28:35.724Z,111.57
2022-12-18T18:30:38.200Z,110.32
2022-12-18T18:32:40.875Z,113.80
2022-12-18T18:34:44.818Z,118.50
2022-12-18T18:36:51.166Z,129.15
2022-12-18T18:38:54.236Z,116.25
2022-12-18T18:41:04.575Z,127.30
2022-12-18T18:43:07.264Z,110.85
2022-12-18T18:45:10.347Z,131.18
2022-12-18T18:47:14.237Z,111.55
2022-12-18T18:49:18.939Z,122.35
2022-12-18T18:51:27.785Z,127.07
2022-12-18T18:53:39.422Z,111.28
2022-12-18T18:55:42.499Z,118.70
2022-12-18T18:57:45.623Z,116.63
2022-12-18T18:59:48.816Z,127.95
2022-12-18T19:01:52.870Z,110.05
2022-12-18T19:03:55.168Z,123.05
2022-12-18T19:06:00.121Z,121.97
2022-12-18T19:08:02.373Z,116.50
2022-12-18T19:10:05.592Z,126.22
2022-12-18T19:12:26.074Z,138.25
2022-12-18T19:26:33.819Z,125.70
2022-12-18T19:28:36.463Z,140.00
2022-12-18T19:32:42.181Z,128.98
2022-12-18T19:34:44.389Z,143.18
2022-12-18T19:36:49.389Z,150.43
2022-12-18T19:42:58.029Z,137.30
2022-12-18T19:45:00.565Z,155.65
2022-12-18T19:47:03.002Z,144.70
2022-12-18T19:49:05.339Z,153.90
2022-12-18T19:53:25.057Z,153.10
2022-12-18T19:55:27.380Z,151.57
2022-12-18T19:57:29.815Z,152.57
2022-12-18T20:01:35.176Z,151.68
2022-12-18T20:03:38.057Z,148.77
2022-12-18T20:05:41.202Z,147.02
2022-12-18T20:07:44.382Z,153.93
2022-12-18T20:09:49.364Z,153.52
2022-12-18T20:11:55.222Z,153.60
2022-12-18T20:13:58.240Z,141.98
2022-12-18T20:16:00.615Z,167.43
2022-12-18T20:20:09.625Z,164.23
2022-12-18T20:22:12.686Z,162.68
2022-12-18T20:24:15.281Z,137.18
2022-12-18T20:26:18.126Z,143.02
2022-12-18T20:28:58.453Z,142.05
2022-12-18T20:34:41.272Z,133.32
2022-12-18T20:37:13.963Z,136.38
2022-12-18T20:39:55.159Z,129.43
2022-12-18T20:41:57.713Z,152.98
2022-12-18T20:46:06.714Z,123.45
2022-12-18T20:48:09.122Z,133.80
2022-12-18T20:50:23.100Z,128.02
2022-12-18T20:52:25.413Z,132.40
2022-12-18T20:56:32.586Z,126.13
2022-12-18T20:58:35.816Z,133.43
2022-12-18T21:00:38.026Z,132.82
2022-12-18T21:02:45.244Z,127.10
2022-12-18T21:04:47.556Z,136.88
2022-12-18T21:06:54.140Z,136.13
2022-12-18T21:33:23.412Z,124.68
2022-12-18T21:41:10.019Z,135.80
2022-12-18T21:43:31.802Z,147.48
2022-12-18T21:45:34.504Z,138.43
2022-12-18T21:47:40.058Z,139.95
2022-12-18T21:49:45.730Z,145.85
2022-12-18T21:51:53.417Z,144.27
2022-12-18T21:53:56.662Z,142.23
2022-12-18T21:56:03.826Z,138.88
2022-12-18T21:58:18.438Z,142.93
2022-12-18T22:00:21.257Z,142.63
2022-12-18T22:02:25.453Z,140.68
2022-12-18T22:04:28.599Z,138.30
2022-12-18T22:06:32.188Z,144.25
2022-12-18T22:10:37.850Z,139.85
2022-12-18T22:12:43.362Z,134.63
2022-12-18T22:14:47.515Z,127.75
2022-12-18T22:16:54.764Z,121.70
2022-12-18T22:18:57.125Z,127.45
2022-12-18T22:21:05.936Z,110.43
2022-12-18T22:23:09.169Z,105.80
2022-12-18T22:25:11.640Z,104.43
2022-12-18T22:29:43.877Z,99.85
2022-12-18T22:32:05.341Z,98.95
2022-12-18T22:34:25.855Z,94.70
2022-12-18T22:36:48.567Z,100.43
2022-12-18T22:39:17.804Z,103.68
2022-12-18T22:41:40.363Z,113.78
2022-12-18T22:44:02.765Z,76.43
2022-12-18T22:46:25.541Z,117.82
2022-12-18T22:51:17.496Z,100.85
2022-12-18T22:53:39.887Z,100.78
2022-12-18T22:56:05.023Z,101.60
2022-12-18T22:58:27.322Z,93.38
2022-12-18T23:00:49.656Z,91.88
2022-12-18T23:03:12.070Z,87.82
2022-12-18T23:05:34.491Z,98.38
2022-12-18T23:07:57.657Z,97.88
2022-12-18T23:10:20.300Z,88.82
2022-12-18T23:12:42.596Z,90.20
2022-12-18T23:15:05.707Z,91.38
2022-12-18T23:17:28.764Z,91.03
2022-12-18T23:19:51.127Z,95.82
2022-12-18T23:22:13.444Z,109.38
2022-12-18T23:24:35.763Z,100.63
2022-12-18T23:26:58.101Z,92.50
2022-12-18T23:29:20.597Z,98.03
2022-12-18T23:31:43.046Z,103.57
2022-12-18T23:34:05.737Z,111.03
2022-12-18T23:36:28.334Z,106.88
2022-12-18T23:38:56.988Z,114.88
2022-12-18T23:41:20.737Z,117.25
2022-12-18T23:43:43.204Z,123.45
2022-12-18T23:46:25.262Z,122.97
2022-12-18T23:48:47.755Z,112.18
2022-12-18T23:51:11.221Z,114.35
2022-12-18T23:53:33.552Z,111.93
2022-12-18T23:55:55.879Z,107.57
2022-12-18T23:58:20.855Z,110.03
